Key West, FL

4:58 PM EDT on July 28, 2016 (GMT -0400)
Key West Naval Air Station | | Change Station

Elev 7 ft 24.58 °N, 81.69 °W | Updated 5 minutes ago

Mostly Cloudy
Mostly Cloudy
87 °F
Feels Like 100 °F
N
14
Wind Variable Wind from East

Today
High -- | Low -- °F
--% Chance of Precip.
Yesterday
High -- | Low -- °F
Precip. -- in
Pressure 30.00 in
Visibility 10.0 miles
Clouds Few 2100 ft
Mostly Cloudy 25000 ft
Heat Index 100 °F
Dew Point 78 °F
Humidity 74%
Rainfall 1.29 in
Snow Depth Not available.
6:53 AM 8:12 PM
Waning Crescent, 29% visible
METAR KNQX 282053Z 09012KT 10SM FEW021 BKN250 31/26 A3000 RMK AO2 SLP158 T03060256 56013 $
Pressure 30.00 in
Visibility 10.0 miles
Clouds Few 2100 ft
Mostly Cloudy 25000 ft
Heat Index 100 °F
Dew Point 78 °F
Humidity 74%
Rainfall 1.29 in
Snow Depth Not available.
6:53 AM 8:12 PM
Waning Crescent, 29% visible
METAR KNQX 282053Z 09012KT 10SM FEW021 BKN250 31/26 A3000 RMK AO2 SLP158 T03060256 56013 $

10-Day Weather Forecast

Almanac

Astronomy

Jul. 28, 2016 Rise Set
Actual Time
Civil Twilight
Nautical Twilight
Astronomical Twilight
Moon
Length of Visible Light
Length of Day
Tomorrow will be .
, % of the Moon is Illuminated

Today's Extremes

State Highs State Lows

Community

WunderPhotos

Upload Photos

1,928,206 photos uploaded!

WunderBlog® & News

Nearby

Air Quality

  Air Quality AQ Index Pollutant
Not available.

Snow Depth

Station Depth Elevation

Earthquake Activity

City Distance Mag. Time & Date
Minimum magnitude displayed is 2.5.

Coastal Water Temperatures

Place Temperature

Stations

Nearby Weather Stations

Station Location Temp. Windchill Dew Point Humidity Wind Precip. Elev Updated Type
                   

Watches & Warnings

There are currently no watches in effect.